Radiance Of The Seas — C6SE7 — position and weather

sailwx.info

Track history (hours):
 
Tides and Currents Weather Stations Pressure Air Temp Water Temp Dewpoint Dewpoint Depression Visibility Wind Speed Wind Dir Waves Ship Positions

Radiance Of The Seas

Operator: Royal Caribbean Cruises Ltd

Last reported at 2015-Mar-22 04:07 UTC. Time now 2015-Mar-28 23:47 UTC.
Position S 41°05' E 150°12'.

Type: Passenger vessel. MMSI: 311319000.

Date/timePositionNaut miles runAvg speedWind from/ knotsBaromVisibWave heightAir tempDewpointWater temp
2015-Mar-22 04:07S 41°05' E 150°12'6711.8
2015-Mar-21 22:29S 40°47' E 148°47'2719.8
2015-Mar-21 21:06S 40°40' E 148°13'2020.5
2015-Mar-21 20:08S 40°33' E 147°48'537.5
2015-Mar-21 20:00S 40°30' E 147°42'914.6 050 / 131020.010.8 1.017.0 18.0
2015-Mar-21 19:22S 40°24' E 147°33'2021.9
2015-Mar-21 18:26S 40°12' E 147°12'2117.8
2015-Mar-21 17:15S 39°58' E 146°50'1420.3
2015-Mar-21 16:33S 39°49' E 146°36'2020.1
2015-Mar-21 15:34S 39°37' E 146°16'2019.9
2015-Mar-21 14:33S 39°24' E 145°56'178 5.8
2015-Mar-20 07:33S 38°49' E 142°10'1514.6
2015-Mar-20 06:32S 38°45' E 141°52'289 9.5
2015-Mar-19 00:13S 34°47' E 138°29'0 0.0
2015-Mar-18 23:31S 34°47' E 138°29'0 0.0
2015-Mar-18 22:33S 34°47' E 138°29'1 0.6
2015-Mar-18 21:33S 34°46' E 138°29'9 7.3
2015-Mar-18 20:21S 34°50' E 138°19'4 4.6
2015-Mar-18 19:33S 34°53' E 138°17'1514.9
2015-Mar-18 18:33S 35°06' E 138°09'1414.0
2015-Mar-18 17:33S 35°17' E 137°58'1414.1
2015-Mar-18 16:34S 35°23' E 137°42'1514.6
2015-Mar-18 15:33S 35°25' E 137°25'47214.9
2015-Mar-17 08:00S 35°00' E 127°48'   280 / 141003.010.8 21.0 20.0
2015-Mar-14 12:32S 31°58' E 115°26'1313.2
2015-Mar-14 11:33S 31°58' E 115°41'6 5.6
2015-Mar-14 10:33S 32°03' E 115°45'0 0.0
2015-Mar-14 09:33S 32°03' E 115°45'0 0.0
2015-Mar-14 08:33S 32°03' E 115°45'0 0.0
2015-Mar-14 07:33S 32°03' E 115°45'0 0.0
2015-Mar-14 06:33S 32°03' E 115°45'0 0.0
2015-Mar-14 05:33S 32°03' E 115°45'0 0.0
2015-Mar-14 04:33S 32°03' E 115°45'0 0.0
2015-Mar-14 03:33S 32°03' E 115°45'0 0.0
2015-Mar-14 02:33S 32°03' E 115°45'0 0.0
2015-Mar-14 01:33S 32°03' E 115°45'0 0.0
2015-Mar-14 00:33S 32°03' E 115°45'0 0.0
2015-Mar-13 23:33S 32°03' E 115°45'0 0.0
2015-Mar-13 22:33S 32°03' E 115°45'1 1.1
2015-Mar-13 21:34S 32°03' E 115°44'1212.2
2015-Mar-13 20:33S 31°54' E 115°34'  
Track history (hours):
 
Tides and Currents Weather Stations Pressure Air Temp Water Temp Dewpoint Dewpoint Depression Visibility Wind Speed Wind Dir Waves Ship Positions

Radiance Of The Seas

Operator: Royal Caribbean Cruises Ltd

Last reported at 2015-Mar-22 04:07 UTC. Time now 2015-Mar-28 23:47 UTC.
Position S 41°05' E 150°12'.

Type: Passenger vessel. MMSI: 311319000.

Date/timePositionNaut miles runAvg speedWind from/ knotsBaromVisibWave heightAir tempDewpointWater temp
2015-Mar-22 04:07S 41°05' E 150°12'6711.8
2015-Mar-21 22:29S 40°47' E 148°47'2719.8
2015-Mar-21 21:06S 40°40' E 148°13'2020.5
2015-Mar-21 20:08S 40°33' E 147°48'537.5
2015-Mar-21 20:00S 40°30' E 147°42'914.6 050 / 131020.010.8 1.017.0 18.0
2015-Mar-21 19:22S 40°24' E 147°33'2021.9
2015-Mar-21 18:26S 40°12' E 147°12'2117.8
2015-Mar-21 17:15S 39°58' E 146°50'1420.3
2015-Mar-21 16:33S 39°49' E 146°36'2020.1
2015-Mar-21 15:34S 39°37' E 146°16'2019.9
2015-Mar-21 14:33S 39°24' E 145°56'178 5.8
2015-Mar-20 07:33S 38°49' E 142°10'1514.6
2015-Mar-20 06:32S 38°45' E 141°52'289 9.5
2015-Mar-19 00:13S 34°47' E 138°29'0 0.0
2015-Mar-18 23:31S 34°47' E 138°29'0 0.0
2015-Mar-18 22:33S 34°47' E 138°29'1 0.6
2015-Mar-18 21:33S 34°46' E 138°29'9 7.3
2015-Mar-18 20:21S 34°50' E 138°19'4 4.6
2015-Mar-18 19:33S 34°53' E 138°17'1514.9
2015-Mar-18 18:33S 35°06' E 138°09'1414.0
2015-Mar-18 17:33S 35°17' E 137°58'1414.1
2015-Mar-18 16:34S 35°23' E 137°42'1514.6
2015-Mar-18 15:33S 35°25' E 137°25'47214.9
2015-Mar-17 08:00S 35°00' E 127°48'   280 / 141003.010.8 21.0 20.0
2015-Mar-14 12:32S 31°58' E 115°26'1313.2
2015-Mar-14 11:33S 31°58' E 115°41'6 5.6
2015-Mar-14 10:33S 32°03' E 115°45'0 0.0
2015-Mar-14 09:33S 32°03' E 115°45'0 0.0
2015-Mar-14 08:33S 32°03' E 115°45'0 0.0
2015-Mar-14 07:33S 32°03' E 115°45'0 0.0
2015-Mar-14 06:33S 32°03' E 115°45'0 0.0
2015-Mar-14 05:33S 32°03' E 115°45'0 0.0
2015-Mar-14 04:33S 32°03' E 115°45'0 0.0
2015-Mar-14 03:33S 32°03' E 115°45'0 0.0
2015-Mar-14 02:33S 32°03' E 115°45'0 0.0
2015-Mar-14 01:33S 32°03' E 115°45'0 0.0
2015-Mar-14 00:33S 32°03' E 115°45'0 0.0
2015-Mar-13 23:33S 32°03' E 115°45'0 0.0
2015-Mar-13 22:33S 32°03' E 115°45'1 1.1
2015-Mar-13 21:34S 32°03' E 115°44'1212.2
2015-Mar-13 20:33S 31°54' E 115°34'  

Dump ship's entire track history